Time;durP1;ratioP1;P1;durP2;ratioP2;P2;SDS_P1;SDS_P2;PMS_P1;PMS_P2;Temp;Humidity;BMP_temperature;BMP_pressure;BME280_temperature;BME280_humidity;BME280_pressure;Samples;Min_cycle;Max_cycle;Signal;HPM_P1;HPM_P2
2022/02/19 00:00:42;;;;;;;24.72;13.88;;;;;;;0.84;97.42;142480.17;1726326;83;21527;-60
2022/02/19 00:03:10;;;;;;;34.60;13.18;;;;;;;0.84;97.43;142478.89;1705365;83;21021;-59
2022/02/19 00:05:37;;;;;;;29.05;12.88;;;;;;;0.84;97.46;142480.17;1697403;83;21019;-61
2022/02/19 00:08:05;;;;;;;27.42;12.63;;;;;;;0.83;97.47;142476.42;1697378;83;21034;-61
2022/02/19 00:10:33;;;;;;;27.05;13.43;;;;;;;0.82;97.47;142475.19;1697524;83;21054;-60
2022/02/19 00:13:00;;;;;;;29.70;12.58;;;;;;;0.82;97.51;142473.95;1697515;83;21070;-58
2022/02/19 00:15:26;;;;;;;25.82;11.78;;;;;;;0.81;97.53;142471.44;1695948;83;21042;-60
2022/02/19 00:17:54;;;;;;;28.65;13.10;;;;;;;0.78;97.58;142465.22;1691637;83;21097;-59
2022/02/19 00:20:21;;;;;;;26.65;12.50;;;;;;;0.76;97.59;142459.00;1690273;84;21047;-59
2022/02/19 00:22:49;;;;;;;26.90;12.47;;;;;;;0.72;97.70;142450.31;1726323;82;21079;-59
2022/02/19 00:25:15;;;;;;;30.05;13.58;;;;;;;0.71;97.79;142446.56;1726356;82;21066;-61
2022/02/19 00:27:44;;;;;;;34.83;13.83;;;;;;;0.70;97.84;142444.09;1726109;83;21093;-59
2022/02/19 00:30:11;;;;;;;26.42;12.03;;;;;;;0.69;97.92;142441.58;1726339;83;21611;-61
2022/02/19 00:32:39;;;;;;;28.05;13.30;;;;;;;0.67;98.01;142437.87;1726092;82;21035;-60
2022/02/19 00:35:07;;;;;;;28.30;13.30;;;;;;;0.64;98.09;142431.66;1726328;82;21027;-59
2022/02/19 00:37:35;;;;;;;26.33;12.50;;;;;;;0.60;98.24;142420.45;1726083;82;21043;-61
2022/02/19 00:40:02;;;;;;;24.35;12.10;;;;;;;0.57;98.46;142414.23;1719809;83;21061;-59
2022/02/19 00:42:29;;;;;;;24.45;12.73;;;;;;;0.54;98.63;142405.55;1705324;84;21094;-61
2022/02/19 00:44:55;;;;;;;24.23;12.58;;;;;;;0.52;98.75;142401.80;1700703;84;21024;-59
2022/02/19 00:47:23;;;;;;;25.32;11.48;;;;;;;0.52;98.79;142401.80;1700466;83;21565;-59
2022/02/19 00:49:50;;;;;;;23.87;11.75;;;;;;;0.48;98.91;142391.83;1700709;84;21044;-60
2022/02/19 00:52:18;;;;;;;19.77;9.90;;;;;;;0.46;99.14;142386.89;1700589;84;21064;-61
2022/02/19 00:54:45;;;;;;;19.62;10.00;;;;;;;0.43;99.31;142379.41;1700603;84;21092;-58
2022/02/19 00:57:15;;;;;;;19.98;10.38;;;;;;;0.43;99.36;142379.41;1700326;83;21080;-61
2022/02/19 00:59:42;;;;;;;24.55;10.23;;;;;;;0.45;99.42;142384.38;1700366;84;21048;-59
2022/02/19 01:02:10;;;;;;;25.65;10.38;;;;;;;0.48;99.42;142390.59;1700583;83;21016;-61
2022/02/19 01:04:55;;;;;;;21.17;9.43;;;;;;;0.50;99.38;142395.58;1700600;84;21056;-58
2022/02/19 01:07:25;;;;;;;32.38;10.65;;;;;;;0.53;99.31;142403.03;1700602;84;21115;-60
2022/02/19 01:09:52;;;;;;;23.32;11.28;;;;;;;0.55;99.15;142409.25;1700352;84;21012;-60
2022/02/19 01:12:20;;;;;;;22.02;10.20;;;;;;;0.59;98.98;142417.98;1700632;84;21012;-59
2022/02/19 01:14:48;;;;;;;23.40;10.15;;;;;;;0.56;98.95;142411.77;1700383;83;21100;-59
2022/02/19 01:17:15;;;;;;;23.25;9.50;;;;;;;0.56;98.91;142410.48;1700337;84;21088;-59
2022/02/19 01:19:42;;;;;;;22.98;10.40;;;;;;;0.57;98.79;142414.23;1700354;83;21004;-60
2022/02/19 01:22:09;;;;;;;22.95;9.88;;;;;;;0.57;98.73;142414.23;1700724;84;20988;-60
2022/02/19 01:24:37;;;;;;;22.32;9.85;;;;;;;0.58;98.68;142416.70;1700443;83;21083;-61
2022/02/19 01:27:05;;;;;;;22.42;10.00;;;;;;;0.58;98.60;142415.47;1700710;84;21040;-60
2022/02/19 01:29:34;;;;;;;19.92;9.58;;;;;;;0.60;98.36;142421.69;1695066;84;21036;-61
2022/02/19 01:32:01;;;;;;;21.70;10.00;;;;;;;0.63;98.20;142429.14;1700002;84;21541;-61
2022/02/19 01:34:29;;;;;;;26.75;10.48;;;;;;;0.64;97.97;142430.42;1695921;84;21056;-59
2022/02/19 01:36:55;;;;;;;18.17;9.55;;;;;;;0.66;97.84;142435.36;1672454;84;21025;-59
2022/02/19 01:39:23;;;;;;;19.12;9.68;;;;;;;0.71;97.49;142446.56;1672288;86;21044;-61
2022/02/19 01:41:52;;;;;;;22.25;9.60;;;;;;;0.73;97.43;142451.53;1672046;84;21084;-61
2022/02/19 01:44:19;;;;;;;17.73;8.98;;;;;;;0.78;97.27;142463.97;1672431;86;21036;-59
2022/02/19 01:46:46;;;;;;;21.05;10.23;;;;;;;0.82;96.83;142473.95;1672477;84;21044;-59
2022/02/19 01:49:13;;;;;;;19.45;10.23;;;;;;;0.85;96.78;142481.41;1672591;86;21540;-60
2022/02/19 01:51:41;;;;;;;18.70;8.93;;;;;;;0.89;96.42;142491.38;1672454;86;21072;-60
2022/02/19 01:54:10;;;;;;;21.70;9.40;;;;;;;0.95;96.15;142506.28;1672491;86;21052;-60
2022/02/19 01:56:53;;;;;;;21.27;10.33;;;;;;;0.97;95.76;142511.27;1671390;86;21056;-61
2022/02/19 01:59:41;;;;;;;17.50;8.63;;;;;;;1.00;95.49;142517.48;1672477;86;21059;-60
2022/02/19 02:02:15;;;;;;;16.50;9.95;;;;;;;0.99;95.20;142514.97;1670154;84;21526;-60
2022/02/19 02:04:47;;;;;;;20.55;8.88;;;;;;;0.98;95.10;142513.73;1674966;84;21096;-60
2022/02/19 02:07:14;;;;;;;17.62;8.68;;;;;;;0.98;94.85;142513.73;1672239;86;21059;-60
2022/02/19 02:09:43;;;;;;;22.70;10.90;;;;;;;0.99;94.75;142516.25;1679929;84;21511;-61
2022/02/19 02:12:10;;;;;;;20.45;9.45;;;;;;;1.01;94.52;142521.19;1699829;83;21032;-61
2022/02/19 02:14:41;;;;;;;22.42;10.08;;;;;;;1.04;94.56;142528.69;1699405;83;21052;-59
2022/02/19 02:17:12;;;;;;;23.57;10.60;;;;;;;1.08;94.38;142537.38;1682654;84;21040;-59
2022/02/19 02:19:42;;;;;;;23.18;10.13;;;;;;;1.11;93.93;142543.59;1700525;84;21514;-60
2022/02/19 02:22:15;;;;;;;20.23;9.50;;;;;;;1.14;93.78;142551.06;1699505;84;21051;-60
2022/02/19 02:24:43;;;;;;;21.33;9.73;;;;;;;1.19;93.46;142563.50;1700609;84;21028;-59
2022/02/19 02:27:12;;;;;;;24.12;10.65;;;;;;;1.25;93.28;142578.47;1700634;84;20984;-59
2022/02/19 02:29:46;;;;;;;21.62;10.30;;;;;;;1.30;92.92;142590.91;1677180;84;21225;-60
2022/02/19 02:32:15;;;;;;;19.90;10.23;;;;;;;1.36;92.37;142604.58;1672564;84;21021;-58
2022/02/19 02:34:52;;;;;;;19.60;9.38;;;;;;;1.36;92.01;142605.81;1674775;84;21063;-61
2022/02/19 02:37:20;;;;;;;24.63;9.53;;;;;;;1.38;91.86;142609.56;1669378;83;21079;-60
2022/02/19 02:39:48;;;;;;;20.30;9.45;;;;;;;1.44;91.67;142625.72;1697139;83;21542;-60
2022/02/19 02:42:17;;;;;;;18.82;9.03;;;;;;;1.47;91.30;142633.17;1697964;83;21048;-61
2022/02/19 02:44:46;;;;;;;19.20;8.73;;;;;;;1.51;90.93;142643.16;1695430;84;21025;-59
2022/02/19 02:47:13;;;;;;;15.93;8.15;;;;;;;1.52;90.56;142645.63;1681392;83;21016;-60
2022/02/19 02:49:41;;;;;;;22.95;9.48;;;;;;;1.53;90.28;142646.91;1696810;84;21542;-59
2022/02/19 02:52:09;;;;;;;18.40;9.30;;;;;;;1.60;90.05;142664.30;1700768;83;21533;-60
2022/02/19 02:54:38;;;;;;;19.15;8.15;;;;;;;1.65;89.60;142675.50;1691211;84;21075;-61
2022/02/19 02:57:06;;;;;;;18.35;8.63;;;;;;;1.70;88.92;142687.95;1676140;84;21032;-61
2022/02/19 02:59:32;;;;;;;16.75;8.73;;;;;;;1.68;88.79;142684.25;1678929;84;21060;-60
2022/02/19 03:02:00;;;;;;;20.75;8.65;;;;;;;1.73;88.33;142695.41;1672399;86;21162;-59
2022/02/19 03:04:27;;;;;;;16.17;8.15;;;;;;;1.78;88.00;142706.63;1672580;84;21024;-59
2022/02/19 03:06:56;;;;;;;16.17;7.28;;;;;;;1.83;87.64;142719.06;1672428;84;21534;-58
2022/02/19 03:09:24;;;;;;;15.48;7.55;;;;;;;1.87;86.93;142730.28;1672389;86;21109;-58
2022/02/19 03:11:51;;;;;;;14.20;7.05;;;;;;;1.92;86.56;142742.73;1672662;84;21076;-61
2022/02/19 03:14:18;;;;;;;15.45;7.15;;;;;;;1.99;85.88;142757.70;1672572;86;21087;-61
2022/02/19 03:16:45;;;;;;;20.08;7.25;;;;;;;2.04;85.66;142770.16;1674568;84;21544;-61
2022/02/19 03:19:12;;;;;;;14.63;7.37;;;;;;;2.12;85.12;142790.06;1703118;83;21565;-60
2022/02/19 03:21:39;;;;;;;20.55;8.08;;;;;;;2.14;84.73;142795.06;1700632;84;21075;-59
2022/02/19 03:24:06;;;;;;;17.17;8.48;;;;;;;2.16;84.45;142800.00;1700700;84;21510;-60
2022/02/19 03:26:34;;;;;;;19.92;8.18;;;;;;;2.17;84.27;142802.53;1700647;84;21040;-61
2022/02/19 03:29:03;;;;;;;17.27;8.08;;;;;;;2.17;84.02;142802.53;1700011;83;21139;-58
2022/02/19 03:31:32;;;;;;;14.53;7.87;;;;;;;2.17;83.89;142803.77;1700360;83;21517;-58
2022/02/19 03:34:09;;;;;;;14.75;7.15;;;;;;;2.19;83.57;142807.52;1689360;84;21052;-60
2022/02/19 03:36:36;;;;;;;17.30;7.90;;;;;;;2.22;83.28;142814.97;1700434;84;21076;-60
2022/02/19 03:39:03;;;;;;;17.65;7.90;;;;;;;2.23;83.16;142817.45;1700392;84;21044;-60
2022/02/19 03:41:32;;;;;;;12.13;6.25;;;;;;;2.23;83.12;142817.45;1700343;83;21578;-61
2022/02/19 03:44:00;;;;;;;12.85;6.50;;;;;;;2.25;82.67;142822.44;1700425;83;21016;-59
2022/02/19 03:46:30;;;;;;;19.02;7.30;;;;;;;2.29;82.28;142832.42;1700414;84;21071;-59
2022/02/19 03:49:15;;;;;;;17.40;7.35;;;;;;;2.32;82.41;142839.88;1700437;84;21013;-60
2022/02/19 03:51:44;;;;;;;17.92;7.35;;;;;;;2.34;82.08;142844.87;1700697;84;21020;-60
2022/02/19 03:54:11;;;;;;;15.10;6.58;;;;;;;2.37;82.03;142852.34;1700747;84;21557;-60
2022/02/19 03:56:38;;;;;;;15.20;7.53;;;;;;;2.41;81.48;142859.81;1700784;83;21008;-59
2022/02/19 03:59:07;;;;;;;15.15;6.55;;;;;;;2.45;81.30;142869.78;1700401;84;21158;-59
2022/02/19 04:01:34;;;;;;;14.00;6.45;;;;;;;2.49;80.71;142879.72;1700685;84;21538;-60
2022/02/19 04:04:04;;;;;;;16.35;7.50;;;;;;;2.53;80.31;142889.72;1700330;84;21032;-60
2022/02/19 04:06:32;;;;;;;11.22;6.15;;;;;;;2.56;80.15;142898.41;1700670;83;21071;-59
2022/02/19 04:09:00;;;;;;;13.10;6.10;;;;;;;2.60;79.87;142907.16;1700694;84;21486;-59
2022/02/19 04:11:27;;;;;;;13.72;5.55;;;;;;;2.60;79.86;142907.16;1700610;84;21017;-59
2022/02/19 04:13:54;;;;;;;13.70;6.08;;;;;;;2.63;79.44;142913.39;1700440;83;21052;-60
2022/02/19 04:16:23;;;;;;;18.35;7.00;;;;;;;2.68;79.13;142925.84;1700054;84;21028;-59
2022/02/19 04:18:51;;;;;;;14.07;6.05;;;;;;;2.69;79.00;142929.56;1700368;83;21040;-60
2022/02/19 04:21:19;;;;;;;19.55;7.28;;;;;;;2.73;78.81;142939.55;1700617;83;21052;-58
2022/02/19 04:23:47;;;;;;;16.05;6.47;;;;;;;2.76;78.74;142945.78;1700444;84;21056;-59
2022/02/19 04:26:14;;;;;;;14.38;5.90;;;;;;;2.79;78.43;142954.47;1700593;84;21040;-59
2022/02/19 04:28:42;;;;;;;11.50;5.85;;;;;;;2.80;77.89;142955.77;1700141;84;21574;-61
2022/02/19 04:31:10;;;;;;;13.98;5.97;;;;;;;2.82;77.69;142961.98;1700596;83;21114;-59
2022/02/19 04:33:38;;;;;;;13.88;6.20;;;;;;;2.83;77.08;142964.47;1700710;83;21030;-60
2022/02/19 04:36:05;;;;;;;13.58;6.53;;;;;;;2.81;76.97;142959.47;1700556;83;21546;-59
2022/02/19 04:38:34;;;;;;;22.82;7.72;;;;;;;2.80;76.95;142957.00;1700370;83;21060;-59
2022/02/19 04:41:01;;;;;;;14.13;6.28;;;;;;;2.81;76.98;142958.23;1700379;83;21032;-60
2022/02/19 04:43:28;;;;;;;17.75;6.92;;;;;;;2.83;76.90;142964.47;1700425;84;21095;-59
2022/02/19 04:45:55;;;;;;;11.88;6.42;;;;;;;2.88;76.55;142974.45;1700530;84;21523;-60
2022/02/19 04:48:22;;;;;;;10.68;5.95;;;;;;;2.88;76.46;142975.69;1700610;84;21052;-61
2022/02/19 04:50:51;;;;;;;11.75;5.65;;;;;;;2.92;76.23;142984.39;1700278;84;21573;-59
2022/02/19 04:53:19;;;;;;;12.80;5.80;;;;;;;2.94;75.94;142989.38;1700695;84;21071;-59
2022/02/19 04:55:46;;;;;;;11.22;5.28;;;;;;;2.96;75.43;142994.38;1700570;84;21542;-59
2022/02/19 04:58:18;;;;;;;13.08;5.62;;;;;;;3.01;75.37;143006.84;1700394;84;21100;-58
2022/02/19 05:00:44;;;;;;;10.25;5.58;;;;;;;3.02;75.33;143010.55;1700386;84;21171;-59
2022/02/19 05:03:21;;;;;;;10.00;5.25;;;;;;;3.05;75.01;143016.78;1700466;83;21048;-61
2022/02/19 05:06:03;;;;;;;17.65;6.17;;;;;;;3.07;74.69;143021.78;1698358;84;21569;-61
2022/02/19 05:08:32;;;;;;;12.00;5.45;;;;;;;3.10;74.69;143029.25;1700607;83;21081;-59
2022/02/19 05:10:59;;;;;;;12.70;5.70;;;;;;;3.10;74.44;143029.25;1700577;84;21024;-61
2022/02/19 05:13:28;;;;;;;12.37;5.75;;;;;;;3.10;74.21;143029.25;1698945;84;21117;-60
2022/02/19 05:15:56;;;;;;;13.28;6.70;;;;;;;3.11;74.00;143031.77;1700652;83;21088;-60
2022/02/19 05:18:24;;;;;;;14.68;6.47;;;;;;;3.12;74.24;143034.25;1699736;84;21096;-61
2022/02/19 05:20:53;;;;;;;15.90;6.83;;;;;;;3.14;74.12;143038.00;1700706;84;21537;-60
2022/02/19 05:23:23;;;;;;;12.58;6.20;;;;;;;3.15;73.94;143040.47;1700536;84;21032;-61
2022/02/19 05:25:51;;;;;;;9.05;5.30;;;;;;;3.17;73.93;143046.70;1700872;84;21072;-61
2022/02/19 05:28:18;;;;;;;12.45;5.60;;;;;;;3.18;73.88;143047.94;1700403;84;21159;-60
2022/02/19 05:30:45;;;;;;;11.60;5.53;;;;;;;3.18;73.67;143049.22;1700694;84;21048;-59
2022/02/19 05:33:32;;;;;;;11.12;5.50;;;;;;;3.21;73.27;143056.69;1700486;84;21514;-60
2022/02/19 05:35:59;;;;;;;14.63;6.30;;;;;;;3.25;73.34;143066.64;1700536;84;21080;-58
2022/02/19 05:38:27;;;;;;;13.93;5.95;;;;;;;3.26;73.29;143069.16;1700334;84;21200;-60
2022/02/19 05:40:55;;;;;;;14.85;5.78;;;;;;;3.29;73.37;143074.16;1700352;83;21056;-59
2022/02/19 05:43:23;;;;;;;12.33;5.50;;;;;;;3.31;73.06;143079.09;1700460;84;21064;-60
2022/02/19 05:45:52;;;;;;;13.43;4.92;;;;;;;3.32;73.67;143081.63;1700633;84;21036;-61
2022/02/19 05:48:20;;;;;;;12.25;6.17;;;;;;;3.29;75.90;143074.16;1700319;83;21158;-60
2022/02/19 05:50:53;;;;;;;11.88;5.62;;;;;;;3.19;78.76;143051.70;1699786;84;21044;-61
2022/02/19 05:53:22;;;;;;;14.20;5.62;;;;;;;3.10;80.78;143029.25;1699416;84;21503;-60
2022/02/19 05:55:49;;;;;;;10.78;5.25;;;;;;;3.00;82.82;143004.31;1700563;84;20989;-60
2022/02/19 05:58:16;;;;;;;12.70;5.90;;;;;;;2.90;84.81;142979.41;1700500;84;21024;-61
2022/02/19 06:00:55;;;;;;;12.98;5.55;;;;;;;2.79;86.33;142953.23;1699890;84;21610;-60
2022/02/19 06:03:22;;;;;;;10.80;5.20;;;;;;;2.70;88.01;142930.84;1700538;84;21146;-59
2022/02/19 06:05:50;;;;;;;14.13;5.00;;;;;;;2.56;90.07;142897.17;1700463;83;21097;-59
2022/02/19 06:08:19;;;;;;;10.72;4.85;;;;;;;2.45;91.31;142869.78;1700888;83;21036;-61
2022/02/19 06:10:46;;;;;;;11.93;5.80;;;;;;;2.33;93.21;142841.13;1700329;83;21052;-60
2022/02/19 06:13:14;;;;;;;15.58;5.22;;;;;;;2.25;94.19;142821.20;1700348;83;21084;-59
2022/02/19 06:15:44;;;;;;;10.95;5.33;;;;;;;2.16;95.19;142800.00;1700091;84;21035;-59
2022/02/19 06:18:28;;;;;;;12.95;5.75;;;;;;;2.08;96.36;142780.09;1699983;84;21602;-60
2022/02/19 06:20:55;;;;;;;13.00;6.10;;;;;;;2.02;97.14;142765.17;1700331;83;21130;-59
2022/02/19 06:23:31;;;;;;;15.85;6.53;;;;;;;1.92;98.36;142741.50;1699696;84;21056;-60
2022/02/19 06:26:01;;;;;;;12.85;5.95;;;;;;;1.79;99.39;142709.14;1700345;84;21052;-59
2022/02/19 06:28:28;;;;;;;17.15;5.25;;;;;;;1.71;99.79;142691.70;1670546;84;21083;-59
2022/02/19 06:30:56;;;;;;;12.80;5.35;;;;;;;1.70;100.00;142687.95;1700471;84;21110;-60
2022/02/19 06:33:23;;;;;;;14.65;5.58;;;;;;;1.68;100.00;142682.97;1700676;83;21056;-58
2022/02/19 06:35:54;;;;;;;12.90;6.20;;;;;;;1.72;100.00;142692.94;1700413;84;21092;-59
2022/02/19 06:38:23;;;;;;;12.35;5.95;;;;;;;1.81;100.00;142714.12;1700755;84;21503;-61
2022/02/19 06:40:50;;;;;;;17.17;6.17;;;;;;;1.91;99.81;142739.03;1700697;84;20992;-60
2022/02/19 06:43:17;;;;;;;14.78;6.75;;;;;;;2.01;98.22;142762.66;1700640;84;21054;-59
2022/02/19 06:45:46;;;;;;;11.97;6.12;;;;;;;2.05;97.61;142772.62;1700450;84;21088;-59
2022/02/19 06:48:16;;;;;;;10.60;6.30;;;;;;;2.13;96.54;142792.53;1700501;84;21550;-61
2022/02/19 06:50:44;;;;;;;13.80;6.80;;;;;;;2.22;95.75;142814.97;1700455;84;21080;-59
2022/02/19 06:53:11;;;;;;;11.45;5.92;;;;;;;2.33;93.88;142842.36;1700438;83;21048;-61
2022/02/19 06:55:39;;;;;;;13.58;6.30;;;;;;;2.43;93.04;142864.80;1700521;84;21059;-60
2022/02/19 06:58:07;;;;;;;16.35;6.60;;;;;;;2.48;91.67;142877.25;1700684;84;21048;-60
2022/02/19 07:00:36;;;;;;;18.48;6.97;;;;;;;2.53;90.65;142889.72;1700157;84;21056;-61
2022/02/19 07:03:04;;;;;;;13.90;7.50;;;;;;;2.61;88.51;142909.63;1700828;84;21064;-60
2022/02/19 07:05:33;;;;;;;15.40;6.33;;;;;;;2.72;87.28;142937.06;1700450;84;21056;-58
2022/02/19 07:08:09;;;;;;;12.05;6.25;;;;;;;2.81;85.14;142959.47;1700624;84;21020;-59
2022/02/19 07:10:37;;;;;;;12.40;5.10;;;;;;;2.90;82.71;142979.41;1700615;83;21008;-60
2022/02/19 07:13:05;;;;;;;12.82;6.37;;;;;;;3.01;81.76;143006.84;1700702;84;21490;-60
2022/02/19 07:15:32;;;;;;;16.37;7.15;;;;;;;3.12;80.99;143034.25;1700644;83;21028;-59
2022/02/19 07:18:10;;;;;;;11.08;5.67;;;;;;;3.21;79.96;143056.69;1700310;84;21052;-60
2022/02/19 07:20:39;;;;;;;11.83;6.03;;;;;;;3.31;78.07;143079.09;1699468;84;21020;-59
2022/02/19 07:23:07;;;;;;;14.78;5.78;;;;;;;3.40;76.67;143102.80;1700726;84;21012;-60
2022/02/19 07:25:34;;;;;;;13.72;5.62;;;;;;;3.48;76.21;143122.73;1700423;83;21040;-59
2022/02/19 07:28:01;;;;;;;20.50;5.85;;;;;;;3.60;75.49;143150.19;1700677;84;21088;-61
2022/02/19 07:30:28;;;;;;;14.63;5.80;;;;;;;3.68;74.08;143171.37;1700526;83;21561;-60
2022/02/19 07:32:56;;;;;;;14.80;5.92;;;;;;;3.74;73.95;143183.84;1700394;83;21575;-58
2022/02/19 07:35:38;;;;;;;10.72;5.53;;;;;;;3.79;73.63;143197.59;1688250;83;21092;-60
2022/02/19 07:38:05;;;;;;;13.83;6.67;;;;;;;3.83;72.94;143206.31;1700738;83;21075;-59
2022/02/19 07:40:33;;;;;;;14.80;5.80;;;;;;;3.88;73.19;143218.78;1700489;83;21016;-59
2022/02/19 07:43:01;;;;;;;15.13;5.60;;;;;;;3.92;72.40;143228.78;1704281;83;21099;-59
2022/02/19 07:45:41;;;;;;;14.68;5.70;;;;;;;3.97;72.56;143241.25;1659856;84;21517;-61
2022/02/19 07:48:27;;;;;;;11.83;5.50;;;;;;;4.02;72.24;143252.44;1705941;84;21012;-58
2022/02/19 07:59:30;;;;;;;13.35;6.00;;;;;;;4.18;71.15;143291.14;1706243;84;21047;-59
2022/02/19 08:01:57;;;;;;;15.18;5.65;;;;;;;4.24;71.29;143306.09;1715624;82;21067;-60
2022/02/19 08:04:24;;;;;;;16.12;6.00;;;;;;;4.29;70.91;143318.56;1687012;84;21043;-59
2022/02/19 08:06:51;;;;;;;12.58;5.20;;;;;;;4.32;70.84;143326.05;1705994;84;21055;-58
2022/02/19 08:09:18;;;;;;;14.10;5.22;;;;;;;4.34;70.75;143331.05;1715718;83;21617;-60
2022/02/19 08:11:45;;;;;;;10.90;5.35;;;;;;;4.38;71.22;143341.05;1679919;84;21096;-59
2022/02/19 08:14:13;;;;;;;19.82;7.67;;;;;;;4.39;71.69;143343.53;1715689;82;21071;-59
2022/02/19 08:16:40;;;;;;;19.82;8.63;;;;;;;4.36;72.41;143336.05;1706090;84;21036;-59
2022/02/19 08:19:07;;;;;;;13.80;6.47;;;;;;;4.36;73.18;143336.05;1715634;82;21019;-60
2022/02/19 08:21:34;;;;;;;16.12;7.08;;;;;;;4.31;72.95;143324.81;1687360;84;21466;-61
2022/02/19 08:24:01;;;;;;;13.48;6.22;;;;;;;4.28;73.14;143316.09;1705917;84;21088;-59
2022/02/19 08:26:28;;;;;;;12.47;5.45;;;;;;;4.27;72.95;143313.58;1715931;83;21525;-58
2022/02/19 08:28:54;;;;;;;12.95;6.55;;;;;;;4.27;72.99;143313.58;1705893;84;21064;-59
2022/02/19 08:31:22;;;;;;;17.10;6.55;;;;;;;4.26;73.12;143311.09;1715669;82;21008;-60
2022/02/19 08:33:49;;;;;;;13.55;7.00;;;;;;;4.27;73.23;143313.58;1706108;84;21514;-60
2022/02/19 08:36:16;;;;;;;15.68;6.55;;;;;;;4.29;73.38;143318.56;1715698;82;21027;-60
2022/02/19 08:38:43;;;;;;;10.82;6.08;;;;;;;4.29;73.02;143318.56;1687448;85;21485;-61
2022/02/19 08:41:10;;;;;;;13.22;6.08;;;;;;;4.31;73.12;143323.58;1705987;83;21048;-59
2022/02/19 08:43:37;;;;;;;13.00;6.28;;;;;;;4.33;73.18;143328.58;1724406;82;21102;-59
2022/02/19 08:46:03;;;;;;;13.50;6.42;;;;;;;4.38;73.05;143341.05;1697140;83;21486;-61
2022/02/19 08:48:32;;;;;;;12.50;5.83;;;;;;;4.42;72.96;143351.00;1695698;84;21047;-61
2022/02/19 08:51:00;;;;;;;14.85;5.83;;;;;;;4.45;72.25;143358.53;1726130;82;21062;-59
2022/02/19 08:53:27;;;;;;;11.83;6.35;;;;;;;4.48;72.04;143366.00;1697366;83;21059;-59
2022/02/19 08:55:57;;;;;;;16.55;7.20;;;;;;;4.48;72.28;143366.00;1695723;83;21079;-59
2022/02/19 08:58:24;;;;;;;13.88;6.30;;;;;;;4.47;72.43;143363.48;1726191;82;21074;-60
2022/02/19 09:00:51;;;;;;;14.23;7.28;;;;;;;4.49;72.47;143367.25;1697251;83;21532;-59
2022/02/19 09:03:18;;;;;;;16.02;7.00;;;;;;;4.46;72.49;143361.00;1695979;83;21553;-59
2022/02/19 09:05:46;;;;;;;16.45;7.33;;;;;;;4.45;72.42;143357.25;1726153;82;21067;-61
2022/02/19 09:08:13;;;;;;;12.50;6.92;;;;;;;4.44;72.51;143354.77;1697461;83;21046;-58
2022/02/19 09:10:41;;;;;;;16.67;7.45;;;;;;;4.44;72.46;143356.00;1695873;83;21031;-59
2022/02/19 09:13:08;;;;;;;17.73;7.55;;;;;;;4.43;72.72;143353.53;1726314;82;21011;-60
2022/02/19 09:15:35;;;;;;;13.83;7.05;;;;;;;4.43;72.88;143352.28;1697151;83;21075;-61
2022/02/19 09:18:02;;;;;;;14.90;7.37;;;;;;;4.43;72.96;143352.28;1695850;83;21083;-58
2022/02/19 09:20:29;;;;;;;13.13;6.40;;;;;;;4.44;73.13;143356.00;1726089;82;21054;-60
2022/02/19 09:22:56;;;;;;;14.83;6.28;;;;;;;4.44;73.15;143356.00;1697491;83;21557;-59
2022/02/19 09:25:23;;;;;;;17.48;7.97;;;;;;;4.44;73.03;143356.00;1695672;84;21019;-60
2022/02/19 09:27:50;;;;;;;16.48;7.65;;;;;;;4.45;73.21;143357.25;1726086;82;21047;-59
2022/02/19 09:30:17;;;;;;;17.55;7.97;;;;;;;4.48;73.16;143366.00;1697117;83;21585;-59
2022/02/19 09:32:44;;;;;;;19.45;8.25;;;;;;;4.50;73.13;143369.72;1695844;83;21486;-58
2022/02/19 09:35:12;;;;;;;17.02;7.25;;;;;;;4.49;73.21;143368.48;1726330;82;21002;-60
2022/02/19 09:37:40;;;;;;;11.20;6.95;;;;;;;4.49;73.37;143368.48;1697176;83;21074;-60
2022/02/19 09:40:09;;;;;;;17.25;7.00;;;;;;;4.53;73.28;143377.25;1695844;83;21070;-59
2022/02/19 09:42:38;;;;;;;16.57;6.83;;;;;;;4.57;73.16;143387.20;1726196;82;20995;-59
2022/02/19 09:45:07;;;;;;;18.87;8.35;;;;;;;4.61;73.20;143397.20;1697335;83;21018;-60
2022/02/19 09:47:36;;;;;;;16.67;8.43;;;;;;;4.68;73.29;143413.41;1695854;83;20996;-59
2022/02/19 09:50:06;;;;;;;17.65;8.25;;;;;;;4.77;73.03;143435.88;1726366;82;21027;-60
2022/02/19 09:52:35;;;;;;;13.93;6.58;;;;;;;4.94;72.90;143477.09;1697315;83;21595;-60
2022/02/19 09:55:03;;;;;;;19.65;9.00;;;;;;;5.12;72.28;143520.78;1695845;83;21031;-59
2022/02/19 09:57:30;;;;;;;18.85;9.85;;;;;;;5.27;71.71;143557.00;1726328;82;20999;-60
2022/02/19 09:59:58;;;;;;;14.78;8.00;;;;;;;5.37;71.55;143583.22;1697136;83;21082;-59
2022/02/19 10:02:34;;;;;;;21.60;9.48;;;;;;;5.46;71.29;143603.19;1695670;83;21094;-60
2022/02/19 10:05:13;;;;;;;16.15;7.42;;;;;;;5.57;70.89;143630.66;1726397;83;21508;-58
2022/02/19 10:07:43;;;;;;;14.03;7.80;;;;;;;5.66;70.39;143653.16;1697171;83;21079;-60
2022/02/19 10:10:25;;;;;;;16.40;7.53;;;;;;;5.73;70.31;143669.41;1695846;83;21022;-60
2022/02/19 10:12:52;;;;;;;15.53;6.58;;;;;;;5.74;69.91;143673.13;1725368;82;21042;-61
2022/02/19 10:15:19;;;;;;;13.32;5.90;;;;;;;5.78;69.99;143681.91;1697331;84;21488;-60
2022/02/19 10:17:47;;;;;;;14.55;6.50;;;;;;;5.82;69.85;143691.87;1695686;83;21019;-60
2022/02/19 10:20:17;;;;;;;14.47;7.58;;;;;;;5.84;69.93;143698.11;1726074;83;21039;-60
2022/02/19 10:22:44;;;;;;;14.83;6.17;;;;;;;5.90;69.97;143710.59;1697359;83;21046;-59
2022/02/19 10:25:19;;;;;;;13.48;6.08;;;;;;;5.97;69.94;143728.16;1695810;83;21051;-61
2022/02/19 10:27:54;;;;;;;12.28;6.60;;;;;;;6.09;69.80;143758.16;1726398;82;21086;-61
2022/02/19 10:30:24;;;;;;;15.38;6.35;;;;;;;6.22;69.42;143789.39;1697446;83;21063;-61
2022/02/19 10:33:04;;;;;;;12.10;6.50;;;;;;;6.26;69.30;143800.66;1695675;85;21035;-59
2022/02/19 10:35:38;;;;;;;12.18;5.92;;;;;;;6.36;68.98;143823.11;1726328;82;21075;-59
2022/02/19 10:38:11;;;;;;;13.53;7.33;;;;;;;6.47;68.88;143850.64;1697117;83;21050;-60
2022/02/19 10:40:46;;;;;;;10.95;6.28;;;;;;;6.55;68.81;143870.62;1696094;83;21031;-60
2022/02/19 10:43:23;;;;;;;11.38;5.58;;;;;;;6.59;68.57;143880.66;1717417;83;21043;-62
2022/02/19 10:46:04;;;;;;;13.65;5.60;;;;;;;6.63;68.49;143889.37;1740398;81;21028;-60
2022/02/19 10:48:35;;;;;;;12.47;5.72;;;;;;;6.70;68.10;143908.12;1740508;82;21025;-59
2022/02/19 10:51:18;;;;;;;12.50;5.17;;;;;;;6.76;67.83;143920.64;1740735;81;21032;-58
2022/02/19 10:53:57;;;;;;;11.35;5.35;;;;;;;6.76;67.67;143921.88;1740775;81;20981;-60
2022/02/19 10:56:25;;;;;;;15.10;5.72;;;;;;;6.72;67.77;143913.16;1740613;81;21021;-59
2022/02/19 10:59:02;;;;;;;10.70;5.42;;;;;;;6.69;67.94;143905.66;1740623;81;20973;-60
2022/02/19 11:01:53;;;;;;;9.65;4.67;;;;;;;6.69;68.11;143905.66;1740364;82;21036;-61
2022/02/19 11:04:21;;;;;;;15.53;4.80;;;;;;;6.68;68.28;143901.88;1739944;82;21028;-59
2022/02/19 11:06:49;;;;;;;13.55;5.90;;;;;;;6.65;68.34;143895.63;1740798;82;21008;-59
2022/02/19 11:09:17;;;;;;;14.20;6.25;;;;;;;6.67;68.53;143900.64;1740567;82;20997;-59
2022/02/19 11:11:46;;;;;;;22.48;9.75;;;;;;;6.71;68.48;143910.62;1740369;82;21005;-61
2022/02/19 11:14:16;;;;;;;14.73;6.62;;;;;;;6.77;68.43;143924.41;1740525;82;21005;-59
2022/02/19 11:16:44;;;;;;;15.68;6.90;;;;;;;6.83;68.42;143938.16;1740679;82;21052;-59
2022/02/19 11:19:11;;;;;;;27.75;6.62;;;;;;;6.86;68.27;143946.88;1740452;82;21475;-59
2022/02/19 11:21:38;;;;;;;16.87;6.83;;;;;;;6.88;68.23;143951.89;1740624;82;21068;-61
2022/02/19 11:24:08;;;;;;;12.73;6.08;;;;;;;6.91;68.12;143958.16;1719729;82;21016;-60
2022/02/19 11:26:37;;;;;;;15.25;5.78;;;;;;;6.92;68.05;143960.63;1740797;81;21515;-60
2022/02/19 11:29:17;;;;;;;14.05;5.92;;;;;;;6.92;68.00;143961.92;1740814;81;21028;-59
2022/02/19 11:31:46;;;;;;;15.32;5.92;;;;;;;6.96;68.13;143970.66;1740813;82;21040;-60
2022/02/19 11:34:18;;;;;;;10.20;4.92;;;;;;;6.98;67.85;143974.42;1719832;82;21013;-60
2022/02/19 11:36:46;;;;;;;11.88;5.00;;;;;;;7.00;67.97;143979.44;1740757;82;20985;-59
2022/02/19 11:39:12;;;;;;;15.15;5.75;;;;;;;6.98;68.02;143974.42;1740491;81;21060;-60
2022/02/19 11:41:43;;;;;;;12.30;5.83;;;;;;;6.94;68.17;143966.87;1740795;82;20987;-58